createdAt,value
2022-11-15T00:02:19.252Z,48.90
2022-11-15T00:05:39.893Z,55.33
2022-11-15T00:09:01.580Z,55.63
2022-11-15T00:12:22.346Z,49.03
2022-11-15T00:15:43.207Z,47.60
2022-11-15T00:19:04.054Z,50.20
2022-11-15T00:22:24.634Z,47.33
2022-11-15T00:25:45.487Z,43.93
2022-11-15T00:29:06.646Z,44.23
2022-11-15T00:32:27.602Z,43.70
2022-11-15T00:35:48.193Z,45.67
2022-11-15T00:39:08.829Z,40.97
2022-11-15T00:42:29.506Z,47.83
2022-11-15T00:45:49.883Z,41.53
2022-11-15T00:49:10.183Z,45.70
2022-11-15T00:52:30.880Z,41.70
2022-11-15T00:55:55.432Z,42.53
2022-11-15T00:59:17.303Z,49.63
2022-11-15T01:02:37.630Z,52.67
2022-11-15T01:06:00.872Z,41.00
2022-11-15T01:09:21.376Z,45.13
2022-11-15T01:12:42.191Z,47.87
2022-11-15T01:16:14.721Z,53.77
2022-11-15T01:19:35.143Z,58.23
2022-11-15T01:22:56.387Z,53.40
2022-11-15T01:26:17.335Z,69.03
2022-11-15T01:29:37.878Z,71.63
2022-11-15T01:32:58.114Z,72.43
2022-11-15T01:36:22.859Z,66.40
2022-11-15T01:39:43.564Z,58.87
2022-11-15T01:43:22.936Z,65.73
2022-11-15T01:46:47.720Z,59.27
2022-11-15T01:50:13.486Z,50.17
2022-11-15T01:53:37.460Z,53.80
2022-11-15T01:57:03.285Z,58.63
2022-11-15T02:00:23.860Z,51.30
2022-11-15T02:03:58.278Z,59.70
2022-11-15T02:07:21.328Z,50.90
2022-11-15T02:10:41.880Z,58.67
2022-11-15T02:14:04.564Z,51.53
2022-11-15T02:17:44.078Z,66.00
2022-11-15T02:21:15.388Z,80.13
2022-11-15T02:25:26.875Z,67.93
2022-11-15T02:28:47.333Z,94.50
2022-11-15T02:32:19.004Z,87.33
2022-11-15T02:35:53.811Z,104.37
2022-11-15T02:39:51.321Z,77.43
2022-11-15T02:43:35.300Z,101.33
2022-11-15T02:47:15.612Z,77.83
2022-11-15T02:50:36.492Z,60.83
2022-11-15T02:53:57.160Z,92.73
2022-11-15T02:57:20.994Z,58.83
2022-11-15T03:00:53.898Z,87.77
2022-11-15T03:04:37.741Z,55.97
2022-11-15T03:08:33.634Z,74.90
2022-11-15T03:12:02.357Z,65.30
2022-11-15T03:15:30.669Z,60.70
2022-11-15T03:18:58.060Z,59.03
2022-11-15T03:22:22.702Z,66.83
2022-11-15T03:25:49.682Z,66.83
2022-11-15T03:29:18.412Z,62.83
2022-11-15T03:32:46.283Z,55.93
2022-11-15T03:36:07.413Z,60.97
2022-11-15T03:39:30.218Z,49.40
2022-11-15T03:42:57.981Z,46.43
2022-11-15T03:46:33.005Z,51.77
2022-11-15T03:50:10.125Z,55.87
2022-11-15T03:53:32.181Z,55.17
2022-11-15T03:56:53.222Z,52.70
2022-11-15T04:00:14.171Z,48.80
2022-11-15T04:03:34.919Z,55.93
2022-11-15T04:06:55.663Z,51.53
2022-11-15T04:10:16.608Z,50.57
2022-11-15T04:13:37.170Z,43.30
2022-11-15T04:16:57.538Z,41.40
2022-11-15T04:20:37.795Z,51.63
2022-11-15T04:24:13.446Z,47.70
2022-11-15T04:27:34.129Z,47.67
2022-11-15T04:30:54.623Z,51.83
2022-11-15T04:34:15.043Z,41.47
2022-11-15T04:37:35.448Z,39.17
2022-11-15T04:40:55.929Z,39.60
2022-11-15T04:44:16.322Z,50.67
2022-11-15T04:47:37.502Z,40.77
2022-11-15T04:50:57.973Z,34.33
2022-11-15T04:54:18.582Z,39.03
2022-11-15T04:57:39.547Z,51.23
2022-11-15T05:01:09.428Z,42.43
2022-11-15T05:04:30.126Z,43.57
2022-11-15T05:07:50.720Z,40.33
2022-11-15T05:11:11.526Z,43.40
2022-11-15T05:14:32.211Z,36.77
2022-11-15T05:17:52.545Z,40.03
2022-11-15T05:21:15.682Z,40.90
2022-11-15T05:24:36.106Z,43.53
2022-11-15T05:27:57.098Z,36.37
2022-11-15T05:31:17.915Z,34.83
2022-11-15T05:34:38.478Z,35.57
2022-11-15T05:37:58.961Z,46.13
2022-11-15T05:41:23.881Z,63.27
2022-11-15T05:44:49.811Z,41.60
2022-11-15T05:48:11.627Z,44.63
2022-11-15T05:51:32.095Z,39.33
2022-11-15T05:54:53.961Z,43.87
2022-11-15T05:58:14.522Z,42.57
2022-11-15T06:01:35.192Z,39.87
2022-11-15T06:04:55.992Z,46.23
2022-11-15T06:08:16.820Z,42.77
2022-11-15T06:11:37.524Z,38.27
2022-11-15T06:14:58.100Z,39.77
2022-11-15T06:18:18.395Z,49.70
2022-11-15T06:21:39.192Z,39.17
2022-11-15T06:25:04.956Z,44.30
2022-11-15T06:28:29.390Z,42.07
2022-11-15T06:31:50.202Z,42.90
2022-11-15T06:35:11.077Z,49.10
2022-11-15T06:38:31.695Z,44.23
2022-11-15T06:41:52.669Z,42.30
2022-11-15T06:45:13.435Z,42.30
2022-11-15T06:48:35.355Z,43.33
2022-11-15T06:51:56.042Z,45.57
2022-11-15T06:55:17.009Z,36.83
2022-11-15T06:58:37.740Z,42.90
2022-11-15T07:01:58.515Z,37.53
2022-11-15T07:05:19.207Z,34.10
2022-11-15T07:08:39.662Z,40.50
2022-11-15T07:12:04.589Z,36.13
2022-11-15T07:15:27.805Z,41.33
2022-11-15T07:18:48.216Z,34.07
2022-11-15T07:22:08.769Z,33.43
2022-11-15T07:25:29.319Z,40.67
2022-11-15T07:28:49.898Z,37.70
2022-11-15T07:32:10.984Z,32.93
2022-11-15T07:35:31.970Z,41.43
2022-11-15T07:38:52.715Z,36.70
2022-11-15T07:42:31.565Z,36.03
2022-11-15T07:45:57.534Z,35.10
2022-11-15T07:49:19.483Z,35.47
2022-11-15T07:52:40.188Z,40.73
2022-11-15T07:56:00.582Z,38.07
2022-11-15T07:59:20.993Z,41.83
2022-11-15T08:02:42.296Z,55.27
2022-11-15T08:06:03.686Z,37.50
2022-11-15T08:09:24.241Z,32.47
2022-11-15T08:12:45.095Z,41.47
2022-11-15T08:16:06.720Z,35.87
2022-11-15T08:19:27.742Z,37.23
2022-11-15T08:22:48.190Z,33.90
2022-11-15T08:26:09.968Z,31.50
2022-11-15T08:29:30.438Z,36.93
2022-11-15T08:32:53.065Z,39.73
2022-11-15T08:36:18.196Z,37.03
2022-11-15T08:39:39.160Z,48.60
2022-11-15T08:43:03.496Z,37.17
2022-11-15T08:46:24.618Z,41.53
2022-11-15T08:49:45.349Z,41.53
2022-11-15T08:53:08.418Z,45.23
2022-11-15T08:56:28.959Z,33.83
2022-11-15T08:59:49.624Z,37.60
2022-11-15T09:03:10.672Z,35.70
2022-11-15T09:06:31.649Z,33.47
2022-11-15T09:09:52.342Z,29.37
2022-11-15T09:13:12.765Z,33.30
2022-11-15T09:16:33.282Z,36.27
2022-11-15T09:19:53.815Z,29.13
2022-11-15T09:23:14.176Z,31.37
2022-11-15T09:26:34.548Z,33.50
2022-11-15T09:29:55.139Z,37.70
2022-11-15T09:33:15.634Z,29.37
2022-11-15T09:36:36.457Z,25.47
2022-11-15T09:39:56.832Z,24.97
2022-11-15T09:43:26.028Z,31.67
2022-11-15T09:46:58.469Z,27.87
2022-11-15T09:50:11.119Z,28.07
2022-11-15T09:53:17.465Z,29.13
2022-11-15T09:56:23.259Z,31.60
2022-11-15T10:00:12.323Z,29.10
2022-11-15T10:03:34.821Z,33.50
2022-11-15T10:06:42.109Z,33.67
2022-11-15T10:10:05.802Z,32.03
2022-11-15T10:13:23.409Z,28.23
2022-11-15T10:16:49.990Z,32.53
2022-11-15T10:20:28.660Z,33.30
2022-11-15T10:23:33.083Z,33.37
2022-11-15T10:26:35.113Z,28.33
2022-11-15T10:29:37.302Z,28.37
2022-11-15T10:32:41.830Z,23.00
2022-11-15T10:35:43.981Z,31.57
2022-11-15T10:38:57.286Z,29.27
2022-11-15T10:42:31.402Z,30.83
2022-11-15T10:45:35.532Z,32.90
2022-11-15T10:48:37.555Z,32.70
2022-11-15T10:51:49.180Z,39.00
2022-11-15T10:55:28.825Z,33.00
2022-11-15T10:58:35.827Z,34.57
2022-11-15T11:01:48.084Z,35.07
2022-11-15T11:04:53.418Z,32.07
2022-11-15T11:08:01.093Z,39.37
2022-11-15T11:11:04.878Z,30.77
2022-11-15T11:14:18.317Z,35.57
2022-11-15T11:17:38.213Z,35.57
2022-11-15T11:20:46.814Z,36.20
2022-11-15T11:24:32.580Z,31.93
2022-11-15T11:28:00.687Z,40.30
2022-11-15T11:31:14.677Z,37.87
2022-11-15T11:34:58.483Z,42.57
2022-11-15T11:38:35.245Z,36.73
2022-11-15T11:42:15.971Z,39.10
2022-11-15T11:45:32.821Z,33.17
2022-11-15T11:49:04.064Z,35.47
2022-11-15T11:52:11.951Z,50.17
2022-11-15T11:55:14.512Z,38.20
2022-11-15T11:58:43.167Z,40.27
2022-11-15T12:01:46.314Z,35.73
2022-11-15T12:04:54.597Z,46.67
2022-11-15T12:08:07.979Z,36.50
2022-11-15T12:11:17.918Z,63.20
2022-11-15T12:14:28.890Z,53.07
2022-11-15T12:17:33.213Z,38.80
2022-11-15T12:20:40.866Z,38.53
2022-11-15T12:23:48.920Z,43.87
2022-11-15T12:26:57.622Z,37.70
2022-11-15T12:30:04.227Z,40.57
2022-11-15T12:33:06.320Z,38.43
2022-11-15T12:36:23.412Z,41.57
2022-11-15T12:40:13.637Z,39.53
2022-11-15T12:43:16.251Z,51.97
2022-11-15T12:46:24.525Z,42.10
2022-11-15T12:49:29.652Z,45.80
2022-11-15T12:52:31.685Z,48.57
2022-11-15T12:55:34.531Z,40.40
2022-11-15T12:58:57.682Z,46.10
2022-11-15T13:02:01.319Z,38.60
2022-11-15T13:05:21.586Z,38.73
2022-11-15T13:08:41.131Z,45.43
2022-11-15T13:11:48.850Z,33.07
2022-11-15T13:14:57.997Z,81.57
2022-11-15T13:18:01.100Z,42.87
2022-11-15T13:21:24.534Z,91.00
2022-11-15T13:24:26.659Z,44.90
2022-11-15T13:27:29.880Z,67.77
2022-11-15T13:30:32.571Z,47.67
2022-11-15T13:33:37.726Z,40.80
2022-11-15T13:36:39.847Z,44.07
2022-11-15T13:39:41.944Z,48.73
2022-11-15T13:42:45.867Z,42.53
2022-11-15T13:46:14.252Z,44.90
2022-11-15T13:49:16.296Z,40.77
2022-11-15T13:52:18.480Z,46.87
2022-11-15T13:55:23.749Z,47.67
2022-11-15T13:58:25.963Z,47.43
2022-11-15T14:01:32.115Z,41.63
2022-11-15T14:04:40.798Z,33.90
2022-11-15T14:07:57.837Z,37.87
2022-11-15T14:11:20.924Z,36.83
2022-11-15T14:14:25.378Z,43.57
2022-11-15T14:17:30.132Z,53.30
2022-11-15T14:20:38.184Z,45.90
2022-11-15T14:23:41.468Z,45.10
2022-11-15T14:26:43.581Z,50.37
2022-11-15T14:29:45.623Z,43.50
2022-11-15T14:32:50.366Z,42.70
2022-11-15T14:35:53.814Z,40.90
2022-11-15T14:38:56.281Z,39.87
2022-11-15T14:41:58.268Z,38.77
2022-11-15T14:45:00.288Z,44.30
2022-11-15T14:48:02.294Z,35.63
2022-11-15T14:51:04.671Z,49.57
2022-11-15T14:54:06.650Z,41.43
2022-11-15T14:57:08.703Z,42.70
2022-11-15T15:00:11.356Z,38.63
2022-11-15T15:03:16.089Z,41.40
2022-11-15T15:06:18.688Z,46.90
2022-11-15T15:09:20.730Z,48.07
2022-11-15T15:12:24.404Z,54.33
2022-11-15T15:15:32.740Z,49.23
2022-11-15T15:18:34.830Z,67.13
2022-11-15T15:21:37.724Z,56.87
2022-11-15T15:24:39.899Z,70.27
2022-11-15T15:27:41.877Z,68.90
2022-11-15T15:30:44.163Z,66.50
2022-11-15T15:33:46.356Z,70.13
2022-11-15T15:36:48.512Z,62.63
2022-11-15T15:39:52.691Z,62.33
2022-11-15T15:42:54.723Z,58.07
2022-11-15T15:45:56.848Z,62.50
2022-11-15T15:48:58.850Z,72.07
2022-11-15T15:52:00.915Z,69.83
2022-11-15T15:55:03.058Z,72.20
2022-11-15T15:58:06.304Z,61.00
2022-11-15T16:01:08.445Z,65.50
2022-11-15T16:04:10.675Z,59.40
2022-11-15T16:07:24.887Z,70.63
2022-11-15T16:10:33.002Z,73.60
2022-11-15T16:13:35.084Z,75.47
2022-11-15T16:16:38.005Z,70.67
2022-11-15T16:19:40.102Z,62.57
2022-11-15T16:22:42.295Z,73.60
2022-11-15T16:25:59.012Z,73.50
2022-11-15T16:29:01.091Z,64.73
2022-11-15T16:32:03.152Z,75.93
2022-11-15T16:35:05.850Z,66.37
2022-11-15T16:38:16.110Z,62.80
2022-11-15T16:41:19.469Z,69.37
2022-11-15T16:44:21.936Z,63.23
2022-11-15T16:47:25.219Z,63.17
2022-11-15T16:50:31.395Z,62.67
2022-11-15T16:53:33.621Z,63.10
2022-11-15T16:56:35.998Z,62.50
2022-11-15T16:59:38.639Z,60.10
2022-11-15T17:02:40.718Z,65.73
2022-11-15T17:05:42.957Z,51.70
2022-11-15T17:08:46.726Z,53.40
2022-11-15T17:11:48.965Z,52.43
2022-11-15T17:14:51.479Z,59.03
2022-11-15T17:17:55.103Z,53.33
2022-11-15T17:20:57.176Z,58.73
2022-11-15T17:24:00.266Z,51.80
2022-11-15T17:27:02.359Z,50.70
2022-11-15T17:30:06.315Z,45.37
2022-11-15T17:33:08.956Z,47.03
2022-11-15T17:36:12.968Z,48.20
2022-11-15T17:39:15.296Z,42.77
2022-11-15T17:42:17.578Z,37.13
2022-11-15T17:45:19.977Z,38.27
2022-11-15T17:48:22.371Z,48.53
2022-11-15T17:51:25.666Z,49.67
2022-11-15T17:54:31.753Z,51.93
2022-11-15T17:57:37.203Z,46.43
2022-11-15T18:00:39.464Z,59.50
2022-11-15T18:03:42.083Z,45.20
2022-11-15T18:06:44.543Z,42.70
2022-11-15T18:09:46.873Z,48.90
2022-11-15T18:12:49.095Z,46.93
2022-11-15T18:15:57.992Z,51.77
2022-11-15T18:19:01.453Z,47.93
2022-11-15T18:22:06.067Z,50.90
2022-11-15T18:25:09.298Z,48.27
2022-11-15T18:28:11.930Z,42.23
2022-11-15T18:31:23.062Z,45.30
2022-11-15T18:34:32.336Z,51.83
2022-11-15T18:37:35.568Z,45.67
2022-11-15T18:40:38.146Z,56.67
2022-11-15T18:43:41.334Z,46.67
2022-11-15T18:46:51.529Z,48.70
2022-11-15T18:49:53.891Z,42.50
2022-11-15T18:52:57.545Z,45.50
2022-11-15T18:56:05.362Z,42.57
2022-11-15T18:59:09.241Z,46.93
2022-11-15T19:02:13.322Z,46.07
2022-11-15T19:05:18.808Z,48.07
2022-11-15T19:08:21.118Z,42.73
2022-11-15T19:11:32.695Z,49.07
2022-11-15T19:14:35.185Z,38.37
2022-11-15T19:17:38.260Z,45.23
2022-11-15T19:20:41.137Z,38.43
2022-11-15T19:23:44.275Z,36.23
2022-11-15T19:26:47.319Z,36.10
2022-11-15T19:29:50.063Z,36.90
2022-11-15T19:32:53.087Z,40.27
2022-11-15T19:36:07.555Z,36.40
2022-11-15T19:39:13.277Z,33.77
2022-11-15T19:42:16.156Z,31.60
2022-11-15T19:45:19.739Z,31.77
2022-11-15T19:48:23.865Z,34.30
2022-11-15T19:51:29.290Z,47.13
2022-11-15T19:54:31.633Z,45.30
2022-11-15T19:57:36.004Z,40.63
2022-11-15T20:00:39.310Z,41.97
2022-11-15T20:03:41.760Z,51.13
2022-11-15T20:06:44.119Z,40.43
2022-11-15T20:09:46.837Z,41.00
2022-11-15T20:12:49.216Z,46.23
2022-11-15T20:15:53.374Z,38.07
2022-11-15T20:18:57.288Z,35.80
2022-11-15T20:21:59.603Z,43.17
2022-11-15T20:25:02.166Z,43.50
2022-11-15T20:28:08.145Z,47.33
2022-11-15T20:31:12.282Z,42.33
2022-11-15T20:34:14.689Z,42.00
2022-11-15T20:37:17.114Z,37.20
2022-11-15T20:40:19.900Z,41.07
2022-11-15T20:43:22.663Z,39.83
2022-11-15T20:46:25.343Z,31.33
2022-11-15T20:49:28.651Z,39.93
2022-11-15T20:52:30.900Z,43.83
2022-11-15T20:55:33.656Z,37.00
2022-11-15T20:58:37.371Z,34.63
2022-11-15T21:01:40.032Z,33.20
2022-11-15T21:04:42.886Z,33.17
2022-11-15T21:07:45.573Z,38.17
2022-11-15T21:11:10.185Z,34.97
2022-11-15T21:14:12.370Z,31.83
2022-11-15T21:17:15.151Z,32.37
2022-11-15T21:20:17.506Z,32.17
2022-11-15T21:23:19.604Z,37.13
2022-11-15T21:26:21.676Z,35.37
2022-11-15T21:29:24.474Z,32.93
2022-11-15T21:32:26.626Z,24.87
2022-11-15T21:35:29.195Z,32.90
2022-11-15T21:38:31.724Z,32.30
2022-11-15T21:41:34.532Z,28.57
2022-11-15T21:44:36.611Z,28.23
2022-11-15T21:47:42.056Z,23.97
2022-11-15T21:50:59.097Z,26.77
2022-11-15T21:54:01.443Z,24.77
2022-11-15T21:57:03.560Z,24.20
2022-11-15T22:00:24.260Z,24.13
2022-11-15T22:03:26.374Z,28.77
2022-11-15T22:06:28.590Z,23.37
2022-11-15T22:09:30.601Z,23.87
2022-11-15T22:12:32.805Z,27.83
2022-11-15T22:15:34.821Z,27.53
2022-11-15T22:18:37.924Z,22.53
2022-11-15T22:21:41.046Z,22.77
2022-11-15T22:24:43.167Z,20.23
2022-11-15T22:27:45.348Z,27.30
2022-11-15T22:30:48.590Z,30.47
2022-11-15T22:33:50.770Z,24.37
2022-11-15T22:37:19.283Z,24.17
2022-11-15T22:40:14.945Z,22.20
2022-11-15T22:43:19.513Z,22.70
2022-11-15T22:46:21.603Z,20.87
2022-11-15T22:49:23.717Z,25.53
2022-11-15T22:52:25.811Z,25.30
2022-11-15T22:55:27.887Z,22.93
2022-11-15T22:58:32.154Z,27.80
2022-11-15T23:01:34.639Z,22.73
2022-11-15T23:04:36.745Z,24.40
2022-11-15T23:07:38.823Z,22.63
2022-11-15T23:10:59.701Z,20.80
2022-11-15T23:14:01.789Z,23.10
2022-11-15T23:17:03.991Z,25.00
2022-11-15T23:20:29.161Z,22.17
2022-11-15T23:23:28.887Z,21.73
2022-11-15T23:26:31.792Z,20.10
2022-11-15T23:29:54.484Z,21.23
2022-11-15T23:33:14.961Z,21.63
2022-11-15T23:36:17.016Z,22.73
2022-11-15T23:39:19.544Z,30.80
2022-11-15T23:42:21.585Z,21.07
2022-11-15T23:45:23.640Z,26.73
2022-11-15T23:48:27.581Z,22.07
2022-11-15T23:51:29.787Z,23.23
2022-11-15T23:54:31.917Z,21.87
2022-11-15T23:57:34.003Z,23.33
